Terminal Aerodrome Forecast
Issued by NWS

Home | Current Version | Previous Version | Text Only | Print | Product List | Glossary On
Versions: 1 2 3 4 5 6 7 8 9 10 11 12 13 14 15 16 17 18 19 20 21 22
000
FTUS44 KTSA 172300 RRA
TAFFYV
TAF
KFYV 172337Z 1800/1824 09002KT 5SM -RA SCT020 OVC050
      TEMPO 1800/1802 3SM -RA BR BKN015
     FM180400 12006KT 5SM -RA BR SCT008 BKN025 OVC035
     FM180600 14004KT 4SM -DZ BR OVC012
     FM180900 14004KT 2SM BR OVC007
     FM181200 16004KT 2SM BR OVC004
     FM181600 10004KT 4SM BR OVC007
     FM182200 07005KT 5SM BR OVC012=

USA.gov is the U.S. government's official web portal to all federal, state and local government web resources and services.